Time;durP1;ratioP1;P1;durP2;ratioP2;P2;SDS_P1;SDS_P2;PMS_P1;PMS_P2;Temp;Humidity;BMP_temperature;BMP_pressure;BME280_temperature;BME280_humidity;BME280_pressure;Samples;Min_cycle;Max_cycle;Signal;HPM_P1;HPM_P2
2021/12/24 00:00:19;;;;;;;11.65;4.07;;;;;;;20.29;55.71;97959.31;7312253;19;129293;-33
2021/12/24 00:02:45;;;;;;;22.50;5.28;;;;;;;20.36;55.67;97959.44;7308058;19;132734;-34
2021/12/24 00:05:11;;;;;;;16.92;4.68;;;;;;;20.39;55.85;97951.28;7306799;19;129747;-36
2021/12/24 00:07:37;;;;;;;18.70;4.93;;;;;;;20.33;56.33;97947.53;7309029;19;129805;-35
2021/12/24 00:10:05;;;;;;;12.98;4.10;;;;;;;20.44;56.01;97944.53;7307769;19;129474;-32
2021/12/24 00:12:33;;;;;;;12.88;4.15;;;;;;;20.46;55.21;97939.16;7312580;19;129615;-35
2021/12/24 00:15:05;;;;;;;17.05;4.82;;;;;;;20.47;55.42;97949.44;7306791;19;129600;-35
2021/12/24 00:17:34;;;;;;;18.20;5.00;;;;;;;20.43;55.32;97942.09;7304246;19;130802;-38
2021/12/24 00:21:10;;;;;;;15.55;4.35;;;;;;;20.40;55.93;97947.66;7303871;19;129511;-30
2021/12/24 00:23:18;;;;;;;18.92;4.55;;;;;;;20.27;55.95;97923.91;7306369;19;130791;-37
2021/12/24 00:36:31;;;;;;;14.65;3.95;;;;;;;20.35;55.96;97935.13;7310863;19;128898;-34
2021/12/24 00:38:57;;;;;;;14.07;4.00;;;;;;;20.37;56.17;97924.53;7308076;19;154287;-36
2021/12/24 00:41:22;;;;;;;12.68;3.75;;;;;;;20.33;56.80;97920.63;7311808;19;129063;-33
2021/12/24 00:43:47;;;;;;;15.13;4.22;;;;;;;20.26;56.14;97909.25;7310307;19;129226;-36
2021/12/24 00:46:13;;;;;;;14.77;3.85;;;;;;;20.31;56.43;97904.34;7306944;19;154937;-30
2021/12/24 00:48:38;;;;;;;17.10;4.47;;;;;;;20.34;56.20;97896.16;7310331;19;154239;-34
2021/12/24 00:55:57;;;;;;;7.10;3.00;;;;;;;20.27;56.54;97890.81;7310458;19;129488;-34
2021/12/24 00:58:25;;;;;;;7.18;3.35;;;;;;;20.24;57.03;97872.09;7308591;19;129825;-35
2021/12/24 01:00:51;;;;;;;14.60;4.00;;;;;;;20.24;56.37;97875.50;7309251;19;159094;-33
2021/12/24 01:03:16;;;;;;;12.60;3.92;;;;;;;20.27;56.34;97875.16;7308722;19;148418;-38
2021/12/24 01:05:42;;;;;;;20.90;5.30;;;;;;;20.30;56.80;97860.94;7301306;19;147114;-31
2021/12/24 01:08:09;;;;;;;16.77;4.40;;;;;;;20.28;56.67;97853.28;7307431;19;129174;-32
2021/12/24 01:10:38;;;;;;;12.25;3.60;;;;;;;20.18;56.26;97844.09;7309461;19;129555;-32
2021/12/24 01:13:04;;;;;;;13.82;3.80;;;;;;;20.33;56.49;97871.03;7309231;19;129222;-29
2021/12/24 01:15:31;;;;;;;18.50;4.33;;;;;;;20.30;56.48;97868.78;7307575;19;129077;-32
2021/12/24 01:20:32;;;;;;;14.60;3.47;;;;;;;20.44;55.80;97865.44;7306199;19;130093;-34
2021/12/24 01:38:58;;;;;;;16.33;4.18;;;;;;;20.42;55.65;97872.63;7308206;19;128924;-30
2021/12/24 01:42:41;;;;;;;14.98;4.10;;;;;;;20.37;56.31;97867.09;7309439;19;129012;-35
2021/12/24 01:44:11;;;;;;;16.77;3.97;;;;;;;20.35;56.61;97871.69;7309222;19;133366;-37
2021/12/24 01:46:37;;;;;;;13.38;3.70;;;;;;;20.29;56.36;97851.50;7308493;19;129838;-30
2021/12/24 01:49:02;;;;;;;19.90;4.55;;;;;;;20.38;56.16;97866.94;7308113;19;150990;-33
2021/12/24 01:51:28;;;;;;;13.95;3.35;;;;;;;20.39;56.31;97862.53;7308398;19;129521;-37
2021/12/24 01:53:53;;;;;;;22.08;5.25;;;;;;;20.34;55.93;97854.41;7309562;19;130323;-28
2021/12/24 01:56:18;;;;;;;15.88;3.83;;;;;;;20.38;56.17;97856.47;7307186;19;155101;-30
2021/12/24 01:58:45;;;;;;;10.73;3.40;;;;;;;20.36;56.80;97849.84;7309707;19;154608;-37
2021/12/24 02:01:10;;;;;;;18.05;4.43;;;;;;;20.34;56.28;97849.19;7316272;19;129569;-34
2021/12/24 02:03:36;;;;;;;21.95;5.43;;;;;;;20.33;56.29;97839.72;7313903;19;129526;-37
2021/12/24 02:06:01;;;;;;;6.13;2.55;;;;;;;20.25;56.38;97839.78;7307808;19;154449;-32
2021/12/24 02:08:26;;;;;;;13.32;3.35;;;;;;;20.30;56.14;97842.69;7313958;19;156412;-40
2021/12/24 02:10:51;;;;;;;19.45;4.53;;;;;;;20.29;56.08;97838.47;7310571;19;129035;-31
2021/12/24 02:13:17;;;;;;;14.43;3.72;;;;;;;20.27;57.00;97843.03;7310347;19;129459;-33
2021/12/24 02:28:55;;;;;;;17.27;3.90;;;;;;;20.52;55.62;97839.25;7315609;19;129346;-31
2021/12/24 02:31:23;;;;;;;11.93;2.88;;;;;;;20.52;55.93;97827.03;7313539;19;158972;-30
2021/12/24 02:33:49;;;;;;;14.73;4.30;;;;;;;20.51;55.24;97827.22;7314088;19;129535;-30
2021/12/24 02:36:15;;;;;;;12.83;3.20;;;;;;;20.53;55.73;97825.22;7313946;19;129413;-33
2021/12/24 02:38:41;;;;;;;14.80;3.95;;;;;;;20.34;55.62;97810.03;7313965;19;129062;-34
2021/12/24 02:41:08;;;;;;;12.70;3.33;;;;;;;20.38;55.61;97827.78;7314799;19;129597;-37
2021/12/24 02:43:33;;;;;;;12.88;3.35;;;;;;;20.49;56.11;97826.56;7314774;19;129251;-38
2021/12/24 02:46:07;;;;;;;11.98;3.20;;;;;;;20.46;55.48;97826.91;7310018;19;131818;-33
2021/12/24 02:54:00;;;;;;;22.27;5.05;;;;;;;20.47;55.88;97823.31;7312199;19;129630;-31
2021/12/24 02:56:32;;;;;;;15.40;3.58;;;;;;;20.44;55.45;97824.47;7311700;19;130051;-40
2021/12/24 02:59:13;;;;;;;11.10;3.42;;;;;;;20.40;56.21;97812.75;7312356;19;128974;-31
2021/12/24 03:01:42;;;;;;;14.25;3.20;;;;;;;20.41;56.04;97818.81;7312869;19;129234;-34
2021/12/24 03:04:08;;;;;;;13.35;3.70;;;;;;;20.33;56.10;97813.63;7311914;19;133641;-35
2021/12/24 03:06:37;;;;;;;15.10;3.58;;;;;;;20.36;55.98;97821.13;7312515;19;129309;-30
2021/12/24 03:09:08;;;;;;;15.63;3.65;;;;;;;20.32;56.60;97814.63;7312835;19;128972;-36
2021/12/24 03:11:35;;;;;;;13.00;3.10;;;;;;;20.31;56.49;97820.84;7309719;19;129057;-32
2021/12/24 03:14:04;;;;;;;17.45;4.30;;;;;;;20.32;56.38;97819.84;7312928;19;131202;-37
2021/12/24 03:16:30;;;;;;;12.40;3.05;;;;;;;20.29;56.31;97815.78;7312534;19;129188;-35
2021/12/24 03:18:55;;;;;;;11.40;2.92;;;;;;;20.37;55.82;97812.28;7312465;19;129419;-33
2021/12/24 03:21:27;;;;;;;5.65;2.00;;;;;;;20.45;56.06;97814.84;7313157;19;129763;-37
2021/12/24 03:26:27;;;;;;;12.82;2.95;;;;;;;20.46;55.97;97821.69;7312198;19;129208;-36
2021/12/24 03:28:52;;;;;;;18.20;3.78;;;;;;;20.51;55.98;97814.94;7313795;19;129098;-33
2021/12/24 03:31:17;;;;;;;17.60;3.47;;;;;;;20.49;55.85;97811.69;7312939;19;129398;-34
2021/12/24 03:33:43;;;;;;;10.05;2.85;;;;;;;20.54;55.57;97811.19;7310894;19;157318;-42
2021/12/24 03:36:08;;;;;;;12.80;3.08;;;;;;;20.43;56.10;97801.97;7311470;19;153344;-34
2021/12/24 03:38:35;;;;;;;17.23;3.60;;;;;;;20.53;55.55;97812.97;7312352;19;128895;-34
2021/12/24 03:41:00;;;;;;;13.90;3.50;;;;;;;20.49;55.42;97810.91;7312684;19;129165;-31
2021/12/24 03:43:25;;;;;;;14.48;2.97;;;;;;;20.43;55.24;97815.00;7312302;19;129315;-39
2021/12/24 03:48:22;;;;;;;3.88;1.92;;;;;;;20.44;55.72;97819.25;7309038;19;139359;-31
2021/12/24 03:50:59;;;;;;;12.90;2.88;;;;;;;20.46;55.22;97813.88;7308105;19;129086;-38
2021/12/24 03:56:08;;;;;;;14.65;3.33;;;;;;;20.44;56.11;97808.00;7306580;19;129418;-33
2021/12/24 03:58:34;;;;;;;13.25;3.25;;;;;;;20.35;56.15;97786.38;7310331;19;128944;-35
2021/12/24 04:00:59;;;;;;;13.82;3.40;;;;;;;20.40;55.51;97804.09;7310856;19;129231;-33
2021/12/24 04:03:24;;;;;;;9.95;2.63;;;;;;;20.38;55.94;97806.91;7308688;19;129917;-34
2021/12/24 04:05:50;;;;;;;16.27;2.95;;;;;;;20.36;56.18;97815.91;7310930;19;138733;-36
2021/12/24 04:08:15;;;;;;;11.27;2.85;;;;;;;20.32;56.88;97817.22;7308935;19;128906;-35
2021/12/24 04:10:41;;;;;;;12.77;2.88;;;;;;;20.29;56.24;97810.56;7310510;19;158263;-34
2021/12/24 04:13:07;;;;;;;10.35;2.72;;;;;;;20.33;56.81;97805.78;7311578;19;129230;-35
2021/12/24 04:15:34;;;;;;;13.55;2.92;;;;;;;20.32;56.81;97812.00;7311290;19;129035;-34
2021/12/24 04:17:59;;;;;;;10.45;2.65;;;;;;;20.32;57.06;97804.19;7309729;19;129317;-32
2021/12/24 04:25:53;;;;;;;15.57;3.05;;;;;;;20.35;56.79;97803.81;7311339;19;129048;-36
2021/12/24 04:28:19;;;;;;;8.93;2.30;;;;;;;20.33;56.68;97801.38;7307242;19;154701;-36
2021/12/24 04:30:49;;;;;;;13.30;2.78;;;;;;;20.34;56.71;97797.00;7311995;19;129633;-34
2021/12/24 04:33:28;;;;;;;12.75;2.97;;;;;;;20.31;56.88;97794.75;7311753;19;130526;-35
2021/12/24 04:36:00;;;;;;;15.73;3.58;;;;;;;20.31;56.76;97792.13;7311288;19;129122;-33
2021/12/24 04:38:35;;;;;;;12.88;2.78;;;;;;;20.32;56.49;97783.31;7308733;19;129072;-30
2021/12/24 04:52:12;;;;;;;17.90;3.17;;;;;;;20.27;56.44;97780.41;7311680;19;129951;-37
2021/12/24 05:03:02;;;;;;;14.40;3.08;;;;;;;20.30;56.84;97785.25;7307194;19;129382;-33
2021/12/24 05:05:40;;;;;;;9.15;2.38;;;;;;;20.32;56.63;97773.69;7309564;19;129843;-36
2021/12/24 05:08:18;;;;;;;14.38;3.17;;;;;;;20.37;56.50;97778.38;7306424;19;129075;-38
2021/12/24 05:10:44;;;;;;;;;;;;;;;20.35;57.38;97772.50;7311893;19;129428;-32
2021/12/24 05:13:12;;;;;;;13.23;2.72;;;;;;;20.40;56.99;97765.78;7310496;19;129346;-39
2021/12/24 05:15:39;;;;;;;7.97;2.30;;;;;;;20.43;56.61;97764.59;7308779;19;129430;-29
2021/12/24 05:18:31;;;;;;;13.10;2.90;;;;;;;20.43;56.68;97762.00;7309103;19;129856;-33
2021/12/24 05:23:40;;;;;;;11.10;2.72;;;;;;;20.40;55.92;97762.34;7310080;19;129240;-38
2021/12/24 05:26:05;;;;;;;14.02;2.65;;;;;;;20.42;56.39;97763.00;7308070;19;129937;-34
2021/12/24 05:28:31;;;;;;;13.82;2.80;;;;;;;20.45;55.71;97762.63;7309663;19;129685;-34
2021/12/24 05:30:56;;;;;;;10.07;2.35;;;;;;;20.43;55.92;97765.41;7306772;19;154857;-41
2021/12/24 05:33:21;;;;;;;13.85;2.85;;;;;;;20.46;55.62;97769.50;7313322;19;129975;-37
2021/12/24 05:35:47;;;;;;;12.45;2.58;;;;;;;20.47;55.98;97755.44;7315248;19;138849;-35
2021/12/24 05:38:15;;;;;;;16.58;3.53;;;;;;;20.41;56.04;97764.78;7311671;19;157163;-35
2021/12/24 05:40:41;;;;;;;14.90;2.97;;;;;;;20.40;56.33;97741.47;7312834;19;128791;-39
2021/12/24 05:43:06;;;;;;;17.27;3.03;;;;;;;20.43;55.77;97743.72;7314404;19;130718;-32
2021/12/24 05:45:31;;;;;;;14.95;2.92;;;;;;;20.34;56.19;97744.78;7313348;19;151172;-34
2021/12/24 05:47:57;;;;;;;5.82;1.70;;;;;;;20.33;56.54;97743.97;7308253;19;145822;-37
2021/12/24 05:50:22;;;;;;;21.73;3.63;;;;;;;20.23;56.16;97738.19;7312003;19;130554;-36
2021/12/24 05:52:48;;;;;;;17.17;3.28;;;;;;;20.28;56.03;97745.50;7313404;19;129500;-36
2021/12/24 05:55:13;;;;;;;22.52;4.30;;;;;;;20.30;56.54;97748.72;7314274;19;158628;-37
2021/12/24 05:57:38;;;;;;;14.00;3.25;;;;;;;20.33;56.25;97749.19;7316640;19;154561;-38
2021/12/24 06:00:07;;;;;;;12.68;2.53;;;;;;;20.28;56.07;97740.28;7311657;19;154128;-36
2021/12/24 06:02:33;;;;;;;12.45;2.80;;;;;;;20.20;56.12;97738.53;7313106;19;129222;-36
2021/12/24 06:04:58;;;;;;;17.35;3.58;;;;;;;20.32;56.52;97751.97;7314762;19;129271;-36
2021/12/24 06:07:24;;;;;;;15.02;3.20;;;;;;;20.25;56.55;97732.78;7313979;19;129422;-38
2021/12/24 06:09:49;;;;;;;14.40;2.70;;;;;;;20.31;55.98;97729.50;7317017;19;129607;-38
2021/12/24 06:12:14;;;;;;;10.05;2.30;;;;;;;20.32;56.73;97736.31;7317483;19;129185;-38
2021/12/24 06:14:41;;;;;;;11.63;2.43;;;;;;;20.32;56.55;97736.31;7310841;19;142038;-38
2021/12/24 06:17:13;;;;;;;13.55;2.90;;;;;;;20.34;56.14;97732.56;7315003;19;129379;-38
2021/12/24 06:19:39;;;;;;;24.10;4.90;;;;;;;20.41;56.39;97735.28;7312622;19;129032;-37
2021/12/24 06:22:04;;;;;;;17.67;3.60;;;;;;;20.40;55.96;97729.25;7309579;19;158583;-38
2021/12/24 06:24:29;;;;;;;11.63;2.15;;;;;;;20.37;55.98;97731.38;7314739;19;147369;-38
2021/12/24 06:26:55;;;;;;;12.77;2.53;;;;;;;20.38;56.36;97733.00;7315600;19;130089;-37
2021/12/24 06:29:23;;;;;;;8.30;1.95;;;;;;;20.36;56.16;97732.38;7315015;19;154312;-37
2021/12/24 06:31:49;;;;;;;15.63;2.65;;;;;;;20.33;56.11;97730.94;7316409;19;129452;-38
2021/12/24 06:34:16;;;;;;;12.57;2.47;;;;;;;20.37;56.78;97744.44;7310367;19;130044;-38
2021/12/24 06:36:43;;;;;;;15.55;2.95;;;;;;;20.34;56.15;97750.03;7314572;19;129170;-38
2021/12/24 06:39:09;;;;;;;20.55;3.60;;;;;;;20.35;55.76;97749.03;7314480;19;130078;-37
2021/12/24 06:41:35;;;;;;;11.75;2.30;;;;;;;20.31;55.88;97751.16;7317085;19;129861;-35
2021/12/24 06:44:01;;;;;;;16.27;3.20;;;;;;;20.34;55.98;97739.59;7310755;19;158660;-40
2021/12/24 06:46:27;;;;;;;7.72;1.77;;;;;;;20.32;56.44;97751.97;7313954;19;129690;-38
2021/12/24 06:48:56;;;;;;;13.37;2.80;;;;;;;20.32;56.38;97733.72;7314995;19;130836;-38
2021/12/24 06:51:25;;;;;;;11.05;2.45;;;;;;;20.32;56.69;97747.59;7314918;19;129139;-39
2021/12/24 06:53:50;;;;;;;9.20;2.63;;;;;;;20.36;56.05;97750.66;7314752;19;131310;-38
2021/12/24 06:56:16;;;;;;;13.75;2.58;;;;;;;20.30;56.41;97743.50;7313762;19;129660;-37
2021/12/24 06:58:41;;;;;;;18.13;3.10;;;;;;;20.30;56.83;97743.50;7309448;19;153039;-37
2021/12/24 07:01:07;;;;;;;16.45;3.10;;;;;;;20.38;55.65;97751.28;7313526;19;130604;-37
2021/12/24 07:03:33;;;;;;;6.32;1.75;;;;;;;20.37;55.76;97740.03;7313268;19;155840;-38
2021/12/24 07:05:58;;;;;;;9.13;1.75;;;;;;;20.38;56.00;97746.06;7315360;19;129740;-38
2021/12/24 07:08:24;;;;;;;11.13;2.20;;;;;;;20.35;55.82;97751.63;7312638;19;129344;-38
2021/12/24 07:10:50;;;;;;;12.43;2.30;;;;;;;20.36;56.41;97740.22;7315646;19;129617;-35
2021/12/24 07:13:15;;;;;;;18.17;3.05;;;;;;;20.36;56.44;97742.81;7315546;19;129292;-36
2021/12/24 07:15:40;;;;;;;12.17;2.17;;;;;;;20.38;56.30;97746.06;7314156;19;154521;-35
2021/12/24 07:18:06;;;;;;;12.10;2.57;;;;;;;20.40;55.79;97744.06;7313399;19;153884;-33
2021/12/24 07:20:31;;;;;;;16.17;2.90;;;;;;;20.41;55.94;97750.94;7308638;19;158130;-38
2021/12/24 07:22:56;;;;;;;14.10;2.53;;;;;;;20.38;55.60;97743.44;7313071;19;157765;-39
2021/12/24 07:25:22;;;;;;;7.35;1.63;;;;;;;20.38;55.68;97738.22;7312948;19;129213;-38
2021/12/24 07:27:47;;;;;;;12.35;2.17;;;;;;;20.38;55.97;97739.03;7310543;19;152874;-31
2021/12/24 07:30:13;;;;;;;14.75;2.97;;;;;;;20.40;56.16;97724.03;7311546;19;158244;-33
2021/12/24 07:32:40;;;;;;;18.85;3.05;;;;;;;20.35;55.78;97730.75;7312754;19;129149;-37
2021/12/24 07:35:07;;;;;;;22.38;4.22;;;;;;;20.36;56.40;97727.16;7311762;19;130087;-35
2021/12/24 07:37:32;;;;;;;17.67;3.15;;;;;;;20.41;55.75;97735.28;7310680;19;129368;-36
2021/12/24 07:39:58;;;;;;;20.42;3.17;;;;;;;20.38;56.17;97726.00;7310514;19;134339;-35
2021/12/24 07:42:25;;;;;;;17.88;2.92;;;;;;;20.36;55.88;97721.94;7310889;19;130138;-36
2021/12/24 07:44:50;;;;;;;19.80;3.17;;;;;;;20.31;56.11;97709.41;7310397;19;129386;-39
2021/12/24 07:47:27;;;;;;;8.45;1.67;;;;;;;20.38;55.89;97726.00;7308121;19;154356;-31
2021/12/24 07:50:00;;;;;;;16.75;2.92;;;;;;;20.39;56.00;97724.19;7313191;19;129072;-32
2021/12/24 07:52:25;;;;;;;13.38;2.92;;;;;;;20.34;56.41;97743.00;7311824;19;129305;-32
2021/12/24 07:54:53;;;;;;;17.25;3.28;;;;;;;20.34;56.21;97727.34;7309625;19;154746;-36
2021/12/24 07:57:19;;;;;;;19.27;3.60;;;;;;;20.36;56.33;97714.13;7306967;19;131063;-36
2021/12/24 07:59:44;;;;;;;11.65;2.17;;;;;;;20.34;56.54;97723.91;7311274;19;129176;-32
2021/12/24 08:02:15;;;;;;;15.38;2.92;;;;;;;20.36;57.26;97735.00;7311443;19;130286;-35
2021/12/24 08:04:42;;;;;;;14.10;2.50;;;;;;;20.29;56.73;97723.63;7311085;19;129885;-38
2021/12/24 08:07:08;;;;;;;16.80;2.80;;;;;;;20.36;57.07;97727.97;7307876;19;129332;-36
2021/12/24 08:09:36;;;;;;;15.25;2.78;;;;;;;20.38;56.68;97728.59;7310765;19;129426;-35
2021/12/24 08:12:02;;;;;;;17.10;3.00;;;;;;;20.37;56.72;97744.44;7311091;19;130089;-34
2021/12/24 08:14:28;;;;;;;10.00;1.77;;;;;;;20.38;56.36;97736.44;7311068;19;129000;-36
2021/12/24 08:16:53;;;;;;;14.52;2.50;;;;;;;20.40;57.01;97731.84;7310055;19;128991;-35
2021/12/24 08:19:18;;;;;;;11.50;2.15;;;;;;;20.31;56.41;97714.63;7307886;19;159103;-32
2021/12/24 08:21:45;;;;;;;17.03;2.80;;;;;;;20.44;56.57;97742.75;7308193;19;158311;-34
2021/12/24 08:24:11;;;;;;;13.80;2.53;;;;;;;20.37;56.71;97739.22;7309712;19;129499;-31
2021/12/24 08:26:36;;;;;;;5.63;1.52;;;;;;;20.37;57.34;97728.78;7309970;19;129008;-33
2021/12/24 08:29:02;;;;;;;17.80;3.23;;;;;;;20.28;57.51;97725.44;7308760;19;155969;-32
2021/12/24 08:31:27;;;;;;;5.53;1.40;;;;;;;20.39;55.61;97735.47;7310444;19;129788;-33
2021/12/24 08:33:53;;;;;;;17.87;3.80;;;;;;;20.40;53.56;97723.19;7309824;19;147490;-33
2021/12/24 08:36:18;;;;;;;13.63;2.22;;;;;;;20.51;53.61;97741.84;7309131;19;146456;-36
2021/12/24 08:38:43;;;;;;;12.07;2.30;;;;;;;20.38;54.21;97719.94;7310190;19;159571;-37
2021/12/24 08:41:09;;;;;;;19.27;3.33;;;;;;;20.53;54.55;97729.44;7309109;19;129302;-38
2021/12/24 08:43:34;;;;;;;14.25;2.45;;;;;;;20.54;54.47;97725.03;7311460;19;128975;-36
2021/12/24 08:46:00;;;;;;;18.35;3.35;;;;;;;20.53;54.84;97729.44;7310439;19;129083;-38
2021/12/24 08:48:25;;;;;;;15.43;2.75;;;;;;;20.53;54.72;97733.84;7307552;19;130876;-32
2021/12/24 08:50:50;;;;;;;15.90;3.03;;;;;;;20.52;54.48;97727.84;7309784;19;129834;-39
2021/12/24 08:53:15;;;;;;;14.00;2.13;;;;;;;20.53;54.85;97728.63;7310001;19;129100;-35
2021/12/24 08:55:41;;;;;;;13.47;2.63;;;;;;;20.56;55.16;97728.28;7308290;19;153632;-33
2021/12/24 08:58:07;;;;;;;14.30;2.75;;;;;;;20.54;54.90;97719.81;7309696;19;129511;-36
2021/12/24 09:00:34;;;;;;;9.63;2.03;;;;;;;20.54;55.36;97723.22;7311080;19;130211;-36
2021/12/24 09:03:01;;;;;;;12.40;2.25;;;;;;;20.54;55.20;97725.03;7311166;19;129852;-39
2021/12/24 09:05:26;;;;;;;15.13;2.80;;;;;;;20.56;55.27;97723.06;7309794;19;130438;-38
2021/12/24 09:07:52;;;;;;;13.73;2.28;;;;;;;20.48;55.28;97715.28;7306934;19;157761;-41
2021/12/24 09:10:17;;;;;;;15.97;2.87;;;;;;;20.60;55.46;97726.94;7308261;19;158651;-38
2021/12/24 09:12:43;;;;;;;16.58;2.90;;;;;;;20.61;54.79;97737.19;7308267;19;155079;-39
2021/12/24 09:15:12;;;;;;;11.03;2.10;;;;;;;20.59;55.15;97712.25;7309455;19;129113;-38
2021/12/24 09:17:38;;;;;;;11.23;2.25;;;;;;;20.57;55.26;97730.72;7307617;19;129197;-39
2021/12/24 09:20:05;;;;;;;9.83;2.23;;;;;;;20.55;55.29;97726.66;7308044;19;129811;-38
2021/12/24 09:22:34;;;;;;;12.07;2.25;;;;;;;20.51;55.41;97722.78;7309085;19;129490;-38
2021/12/24 09:24:59;;;;;;;12.23;2.00;;;;;;;20.58;54.95;97728.91;7309073;19;129344;-39
2021/12/24 09:27:25;;;;;;;10.85;2.40;;;;;;;20.56;55.22;97733.50;7307149;19;130646;-39
2021/12/24 09:29:51;;;;;;;12.02;2.10;;;;;;;20.56;55.39;97726.47;7308955;19;130785;-37
2021/12/24 09:32:16;;;;;;;14.98;2.53;;;;;;;20.52;55.51;97733.06;7308855;19;129845;-40
2021/12/24 09:34:42;;;;;;;22.13;4.10;;;;;;;20.46;55.01;97725.13;7306680;19;145722;-38
2021/12/24 09:37:08;;;;;;;13.77;2.63;;;;;;;20.54;55.25;97731.06;7308052;19;129431;-38
2021/12/24 09:39:34;;;;;;;13.07;2.10;;;;;;;20.52;55.50;97727.00;7306439;19;158315;-38
2021/12/24 09:42:01;;;;;;;11.30;2.47;;;;;;;20.47;55.38;97718.91;7309544;19;129812;-38
2021/12/24 09:44:27;;;;;;;11.27;1.90;;;;;;;20.47;55.15;97709.28;7309181;19;129253;-38
2021/12/24 09:46:53;;;;;;;14.70;2.53;;;;;;;20.53;55.66;97705.94;7308202;19;130257;-35
2021/12/24 09:49:20;;;;;;;12.30;2.03;;;;;;;20.51;55.72;97720.97;7307536;19;129888;-37
2021/12/24 09:51:50;;;;;;;19.88;3.20;;;;;;;20.50;55.44;97716.75;7308808;19;129009;-36
2021/12/24 09:54:18;;;;;;;13.23;2.08;;;;;;;20.41;55.69;97704.75;7308086;19;129648;-35
2021/12/24 09:56:44;;;;;;;17.23;2.95;;;;;;;20.50;55.17;97713.31;7308550;19;130275;-38
2021/12/24 09:59:11;;;;;;;16.70;3.33;;;;;;;20.46;55.58;97714.69;7307669;19;130877;-37
2021/12/24 10:01:43;;;;;;;13.85;2.38;;;;;;;20.46;55.88;97712.88;7307290;19;129140;-37
2021/12/24 10:04:14;;;;;;;14.95;2.83;;;;;;;20.46;55.72;97706.84;7309126;19;129232;-35
2021/12/24 10:06:55;;;;;;;15.35;2.55;;;;;;;20.49;55.97;97711.72;7307794;19;133015;-37
2021/12/24 10:09:27;;;;;;;13.18;2.20;;;;;;;20.45;55.90;97695.59;7307919;19;130438;-35
2021/12/24 10:11:57;;;;;;;8.55;1.77;;;;;;;20.43;56.28;97707.19;7308690;19;129376;-31
2021/12/24 10:14:29;;;;;;;13.82;2.45;;;;;;;20.43;56.40;97707.19;7307655;19;129019;-34
2021/12/24 10:16:55;;;;;;;15.90;2.83;;;;;;;20.44;56.22;97703.59;7306886;19;133820;-33
2021/12/24 10:19:21;;;;;;;8.77;1.50;;;;;;;20.44;56.20;97708.81;7309352;19;131059;-35
2021/12/24 10:21:55;;;;;;;22.67;3.75;;;;;;;20.44;56.17;97698.38;7314690;19;129728;-35
2021/12/24 10:24:20;;;;;;;11.52;2.08;;;;;;;20.44;55.45;97704.38;7313560;19;128860;-35
2021/12/24 10:26:54;;;;;;;20.70;3.03;;;;;;;20.46;55.67;97684.16;7313760;19;138843;-34
2021/12/24 10:29:38;;;;;;;11.68;2.03;;;;;;;20.47;55.55;97674.53;7313839;19;130342;-39
2021/12/24 10:32:10;;;;;;;7.88;2.05;;;;;;;20.49;56.02;97683.00;7314142;19;129126;-32
2021/12/24 10:34:36;;;;;;;18.17;3.58;;;;;;;20.50;55.68;97682.00;7312739;19;129751;-34
2021/12/24 10:37:24;;;;;;;13.83;2.37;;;;;;;20.43;56.89;97671.47;7313722;19;131162;-32
2021/12/24 10:39:56;;;;;;;;;;;;;;;20.42;56.08;97676.88;7315104;19;131083;-41
2021/12/24 10:42:36;;;;;;;10.40;1.92;;;;;;;20.41;56.18;97683.88;7315287;19;129131;-36
2021/12/24 10:45:06;;;;;;;13.63;2.65;;;;;;;20.41;56.40;97688.31;7313815;19;129173;-38
2021/12/24 10:47:36;;;;;;;15.00;2.35;;;;;;;20.44;56.54;97678.28;7312782;19;130810;-36
2021/12/24 10:53:12;;;;;;;17.55;2.83;;;;;;;20.47;56.59;97667.53;7313459;19;129780;-40
2021/12/24 10:55:45;;;;;;;11.73;1.97;;;;;;;20.46;56.50;97657.25;7312266;19;130745;-31
2021/12/24 10:58:30;;;;;;;15.60;2.45;;;;;;;20.46;56.90;97665.09;7312362;19;129773;-37
2021/12/24 11:00:58;;;;;;;14.77;2.65;;;;;;;20.39;56.29;97648.53;7310706;19;131080;-32
2021/12/24 11:03:26;;;;;;;16.65;2.72;;;;;;;20.44;56.48;97654.00;7314043;19;129048;-31
2021/12/24 11:05:55;;;;;;;16.48;2.40;;;;;;;20.43;56.33;97654.97;7312127;19;128889;-34
2021/12/24 11:08:23;;;;;;;10.32;1.63;;;;;;;20.46;55.57;97665.09;7309478;19;129552;-35
2021/12/24 11:10:57;;;;;;;10.30;1.75;;;;;;;20.47;55.97;97664.09;7313585;19;129360;-32
2021/12/24 11:13:35;;;;;;;11.55;2.00;;;;;;;20.35;56.56;97640.22;7312430;19;128844;-33
2021/12/24 11:16:02;;;;;;;11.77;2.40;;;;;;;20.44;56.22;97660.03;7312402;19;129252;-34
2021/12/24 11:18:34;;;;;;;17.20;3.17;;;;;;;20.42;56.02;97645.53;7311802;19;130678;-32
2021/12/24 11:21:23;;;;;;;8.40;1.65;;;;;;;20.44;55.70;97656.63;7312003;19;130716;-38
2021/12/24 11:23:49;;;;;;;18.88;3.55;;;;;;;20.45;55.62;97658.22;7312522;19;128904;-34
2021/12/24 11:26:21;;;;;;;16.50;2.83;;;;;;;20.43;55.71;97649.75;7311985;19;128910;-35
2021/12/24 11:28:47;;;;;;;18.23;2.53;;;;;;;20.44;56.31;97657.41;7303979;19;130309;-38
2021/12/24 11:31:19;;;;;;;18.75;3.30;;;;;;;20.43;56.30;97654.97;7312161;19;129254;-38
2021/12/24 11:33:46;;;;;;;17.92;3.08;;;;;;;20.38;55.99;97657.31;7311464;19;129548;-37
2021/12/24 11:36:16;;;;;;;20.50;3.40;;;;;;;20.41;56.09;97662.22;7309074;19;129566;-35
2021/12/24 11:38:47;;;;;;;12.85;2.60;;;;;;;20.44;55.75;97661.84;7310869;19;131214;-38
2021/12/24 11:41:15;;;;;;;14.05;2.53;;;;;;;20.40;55.96;97650.13;7304518;19;131076;-35
2021/12/24 11:43:42;;;;;;;12.63;2.17;;;;;;;20.31;55.83;97640.78;7312335;19;128983;-38
2021/12/24 11:46:10;;;;;;;11.98;2.30;;;;;;;20.39;56.53;97644.13;7310996;19;130732;-37
2021/12/24 11:48:36;;;;;;;8.35;1.80;;;;;;;20.41;56.01;97649.94;7311424;19;129168;-35
2021/12/24 11:51:08;;;;;;;14.73;2.63;;;;;;;20.38;56.06;97645.09;7312644;19;129819;-37
2021/12/24 11:53:34;;;;;;;18.27;3.63;;;;;;;20.38;56.23;97626.00;7311646;19;128987;-40
2021/12/24 11:56:10;;;;;;;17.83;3.08;;;;;;;20.56;55.81;97650.75;7307264;19;129348;-37
2021/12/24 11:58:50;;;;;;;26.30;4.72;;;;;;;20.47;55.92;97656.25;7311979;19;129573;-35
2021/12/24 12:01:21;;;;;;;12.63;2.08;;;;;;;20.38;55.15;97652.09;7310256;19;131146;-37
2021/12/24 12:03:52;;;;;;;20.40;3.88;;;;;;;20.42;54.89;97648.16;7313071;19;129241;-34
2021/12/24 12:06:17;;;;;;;19.42;3.47;;;;;;;20.45;55.03;97653.00;7310541;19;129283;-31
2021/12/24 12:08:44;;;;;;;17.13;2.70;;;;;;;20.49;55.22;97643.84;7310900;19;158646;-37
2021/12/24 12:11:20;;;;;;;13.55;2.25;;;;;;;20.43;55.80;97645.34;7311692;19;130348;-32
2021/12/24 12:13:52;;;;;;;25.02;4.30;;;;;;;20.39;55.98;97638.91;7298703;19;130155;-34
2021/12/24 12:16:39;;;;;;;23.98;3.85;;;;;;;20.47;55.89;97651.03;7308231;19;129541;-33
2021/12/24 12:22:25;;;;;;;19.33;2.95;;;;;;;20.39;56.25;97658.97;7308383;19;129533;-34
2021/12/24 12:24:58;;;;;;;6.68;1.25;;;;;;;20.37;56.33;97647.88;7309615;19;129303;-40
2021/12/24 12:27:36;;;;;;;13.25;2.28;;;;;;;20.35;56.56;97639.41;7309963;19;129700;-37
2021/12/24 12:30:16;;;;;;;9.38;1.83;;;;;;;20.42;56.05;97658.59;7310242;19;130720;-34
2021/12/24 12:32:42;;;;;;;15.55;2.55;;;;;;;20.46;56.20;97667.69;7309611;19;158452;-37
2021/12/24 12:35:08;;;;;;;13.77;2.40;;;;;;;20.49;55.55;97643.84;7310397;19;129501;-30
2021/12/24 12:37:50;;;;;;;17.55;2.78;;;;;;;20.52;56.11;97659.13;7308588;19;129118;-41
2021/12/24 12:40:15;;;;;;;11.25;1.98;;;;;;;20.51;55.41;97662.75;7310138;19;130188;-32
2021/12/24 12:42:53;;;;;;;15.33;2.90;;;;;;;20.45;55.91;97653.00;7306292;19;158691;-37
2021/12/24 12:45:42;;;;;;;15.55;2.47;;;;;;;20.47;55.86;97640.59;7308804;19;129017;-37
2021/12/24 12:48:16;;;;;;;15.82;2.67;;;;;;;20.50;55.87;97645.44;7305081;19;129492;-31
2021/12/24 12:50:52;;;;;;;15.25;3.03;;;;;;;20.49;55.65;97634.19;7310945;19;130365;-37
2021/12/24 12:53:35;;;;;;;7.35;1.73;;;;;;;20.51;56.12;97642.66;7307651;19;129293;-39
2021/12/24 12:56:30;;;;;;;13.57;2.65;;;;;;;20.53;55.59;97637.25;7307806;19;129648;-38
2021/12/24 12:58:57;;;;;;;14.85;2.50;;;;;;;20.58;55.71;97642.75;7312372;19;129910;-38